Columbus, OH (43287)

4:03 PM EDT on September 02, 2015 (GMT -0400)
Millbrook | | Change Station
CLOSE
Current Station
Personal Weather Station
Location: Columbus, OH
Elevation: 768 ft
Nearby Weather Stations

Elev 768 ft 39.93 °N, 82.95 °W | Updated 14 minutes ago

Partly Cloudy
Partly Cloudy
90.0 °F
Feels Like 99 °F
N
8.9
Wind Variable Wind from WSW

Today
High -- | Low -- °F
--% Chance of Precip.
Yesterday
High -- | Low -- °F
Precip. -- in
7:00 AM 8:02 PM
Waning Gibbous, 77% visible
Pressure 30.04 in
Visibility 9.0 miles
Clouds Few 4000 ft
Scattered Clouds 4700 ft
Mostly Cloudy 6000 ft
Mostly Cloudy 13000 ft
Mostly Cloudy 20000 ft
Heat Index 99 °F
Dew Point 74 °F
Humidity 59%
Rainfall 0.01 in
Snow Depth Not available.
UV 3 out of 12
Pollen 10.40 out of 12
Air Quality Not available.
Flu Activity Not available.
SPECI KCMH 022000Z 35023G32KT 9SM TS FEW040 SCT047CB BKN060 BKN130 BKN200 27/20 A3004 RMK AO2 PK WND 34032/1959 TSB1958RAE1956 OCNL LTGICCCCG TS N MOV E-SE P0000
Pressure 30.04 in
Visibility 9.0 miles
Clouds Few 4000 ft
Scattered Clouds 4700 ft
Mostly Cloudy 6000 ft
Mostly Cloudy 13000 ft
Mostly Cloudy 20000 ft
Heat Index 99 °F
Dew Point 74 °F
Humidity 59%
Rainfall 0.01 in
Snow Depth Not available.
UV 3 out of 12
Pollen 10.40 out of 12
Air Quality Not available.
Flu Activity Not available.
SPECI KCMH 022000Z 35023G32KT 9SM TS FEW040 SCT047CB BKN060 BKN130 BKN200 27/20 A3004 RMK AO2 PK WND 34032/1959 TSB1958RAE1956 OCNL LTGICCCCG TS N MOV E-SE P0000

10-Day Weather Forecast

×

Almanac

Astronomy

Sep. 02, 2015 Rise Set
Actual Time
Civil Twilight
Nautical Twilight
Astronomical Twilight
Moon
Length of Visible Light
Length of Day
Tomorrow will be .
, % of the Moon is Illuminated

Today's Extremes

State Highs State Lows

Community

WunderPhotos

Upload Photos

1,851,804 photos uploaded!

WunderBlogs® & News

Nearby

Air Quality

  Air Quality AQ Index Pollutant
Not available.

Snow Depth

Station Depth Elevation

Earthquake Activity

City Distance Mag. Time & Date
Minimum magnitude displayed is 2.5.

Coastal Water Temperatures

Place Temperature

Stations

Nearby Weather Stations

Station Location Temp. Windchill Dew Point Humidity Wind Precip. Elev Updated Type